sensor_id;sensor_type;location;lat;lon;timestamp;temperature;humidity
29803;DHT22;16702;50.898;4.662;2023-07-02T00:00:13;19.10;99.90
29803;DHT22;16702;50.898;4.662;2023-07-02T00:02:46;19.10;99.90
29803;DHT22;16702;50.898;4.662;2023-07-02T00:05:17;19.00;99.90
29803;DHT22;16702;50.898;4.662;2023-07-02T00:07:50;19.00;99.90
29803;DHT22;16702;50.898;4.662;2023-07-02T00:10:21;18.90;99.90
29803;DHT22;16702;50.898;4.662;2023-07-02T00:12:52;18.90;99.90
29803;DHT22;16702;50.898;4.662;2023-07-02T00:15:23;18.90;99.90
29803;DHT22;16702;50.898;4.662;2023-07-02T00:17:53;18.90;99.90
29803;DHT22;16702;50.898;4.662;2023-07-02T00:20:25;18.90;99.90
29803;DHT22;16702;50.898;4.662;2023-07-02T00:22:58;18.90;99.90
29803;DHT22;16702;50.898;4.662;2023-07-02T00:25:28;18.90;99.90
29803;DHT22;16702;50.898;4.662;2023-07-02T00:27:59;18.90;99.90
29803;DHT22;16702;50.898;4.662;2023-07-02T00:30:29;18.90;99.90
29803;DHT22;16702;50.898;4.662;2023-07-02T00:33:00;18.90;99.90
29803;DHT22;16702;50.898;4.662;2023-07-02T00:35:31;18.90;99.90
29803;DHT22;16702;50.898;4.662;2023-07-02T00:38:04;18.90;99.90
29803;DHT22;16702;50.898;4.662;2023-07-02T00:40:36;18.80;99.90
29803;DHT22;16702;50.898;4.662;2023-07-02T00:43:07;18.80;99.90
29803;DHT22;16702;50.898;4.662;2023-07-02T00:45:40;18.80;99.90
29803;DHT22;16702;50.898;4.662;2023-07-02T00:48:11;18.80;99.90
29803;DHT22;16702;50.898;4.662;2023-07-02T00:50:41;18.80;99.90
29803;DHT22;16702;50.898;4.662;2023-07-02T00:53:16;18.70;99.90
29803;DHT22;16702;50.898;4.662;2023-07-02T00:55:46;18.80;99.90
29803;DHT22;16702;50.898;4.662;2023-07-02T00:58:17;18.70;99.90
29803;DHT22;16702;50.898;4.662;2023-07-02T01:00:48;18.80;99.90
29803;DHT22;16702;50.898;4.662;2023-07-02T01:03:19;18.70;99.90
29803;DHT22;16702;50.898;4.662;2023-07-02T01:05:52;18.80;99.90
29803;DHT22;16702;50.898;4.662;2023-07-02T01:08:25;18.70;99.90
29803;DHT22;16702;50.898;4.662;2023-07-02T01:10:57;18.80;99.90
29803;DHT22;16702;50.898;4.662;2023-07-02T01:13:28;18.70;99.90
29803;DHT22;16702;50.898;4.662;2023-07-02T01:15:59;18.80;99.90
29803;DHT22;16702;50.898;4.662;2023-07-02T01:18:29;18.70;99.90
29803;DHT22;16702;50.898;4.662;2023-07-02T01:21:03;18.70;99.90
29803;DHT22;16702;50.898;4.662;2023-07-02T01:23:34;18.70;99.90
29803;DHT22;16702;50.898;4.662;2023-07-02T01:26:04;18.60;99.90
29803;DHT22;16702;50.898;4.662;2023-07-02T01:28:36;18.60;99.90
29803;DHT22;16702;50.898;4.662;2023-07-02T01:31:06;18.70;99.90
29803;DHT22;16702;50.898;4.662;2023-07-02T01:33:37;18.70;99.90
29803;DHT22;16702;50.898;4.662;2023-07-02T01:36:11;18.60;99.90
29803;DHT22;16702;50.898;4.662;2023-07-02T01:38:41;18.60;99.90
29803;DHT22;16702;50.898;4.662;2023-07-02T01:41:12;18.60;99.90
29803;DHT22;16702;50.898;4.662;2023-07-02T01:43:42;18.60;99.90
29803;DHT22;16702;50.898;4.662;2023-07-02T01:46:13;18.50;99.90
29803;DHT22;16702;50.898;4.662;2023-07-02T01:48:45;18.60;99.90
29803;DHT22;16702;50.898;4.662;2023-07-02T01:51:18;18.60;99.90
29803;DHT22;16702;50.898;4.662;2023-07-02T01:53:49;18.60;99.90
29803;DHT22;16702;50.898;4.662;2023-07-02T01:56:19;18.50;99.90
29803;DHT22;16702;50.898;4.662;2023-07-02T01:58:50;18.50;99.90
29803;DHT22;16702;50.898;4.662;2023-07-02T02:01:20;18.50;99.90
29803;DHT22;16702;50.898;4.662;2023-07-02T02:03:51;18.60;99.90
29803;DHT22;16702;50.898;4.662;2023-07-02T02:06:24;18.60;99.90
29803;DHT22;16702;50.898;4.662;2023-07-02T02:08:55;18.60;99.90
29803;DHT22;16702;50.898;4.662;2023-07-02T02:11:29;18.60;99.90
29803;DHT22;16702;50.898;4.662;2023-07-02T02:14:00;18.60;99.90
29803;DHT22;16702;50.898;4.662;2023-07-02T02:16:31;18.60;99.90
29803;DHT22;16702;50.898;4.662;2023-07-02T02:19:03;18.60;99.90
29803;DHT22;16702;50.898;4.662;2023-07-02T02:21:36;18.60;99.90
29803;DHT22;16702;50.898;4.662;2023-07-02T02:24:07;18.60;99.90
29803;DHT22;16702;50.898;4.662;2023-07-02T02:26:38;18.60;99.90
29803;DHT22;16702;50.898;4.662;2023-07-02T02:29:08;18.60;99.90
29803;DHT22;16702;50.898;4.662;2023-07-02T02:31:39;18.50;99.90
29803;DHT22;16702;50.898;4.662;2023-07-02T02:34:11;18.50;99.90
29803;DHT22;16702;50.898;4.662;2023-07-02T02:36:44;18.50;99.90
29803;DHT22;16702;50.898;4.662;2023-07-02T02:39:15;18.50;99.90
29803;DHT22;16702;50.898;4.662;2023-07-02T02:41:45;18.50;99.90
29803;DHT22;16702;50.898;4.662;2023-07-02T02:44:19;18.50;99.90
29803;DHT22;16702;50.898;4.662;2023-07-02T02:46:50;18.50;99.90
29803;DHT22;16702;50.898;4.662;2023-07-02T02:49:21;18.40;99.90
29803;DHT22;16702;50.898;4.662;2023-07-02T02:51:54;18.50;99.90
29803;DHT22;16702;50.898;4.662;2023-07-02T02:54:24;18.50;99.90
29803;DHT22;16702;50.898;4.662;2023-07-02T02:56:55;18.50;99.90
29803;DHT22;16702;50.898;4.662;2023-07-02T02:59:26;18.40;99.90
29803;DHT22;16702;50.898;4.662;2023-07-02T03:01:56;18.50;99.90
29803;DHT22;16702;50.898;4.662;2023-07-02T03:04:27;18.50;99.90
29803;DHT22;16702;50.898;4.662;2023-07-02T03:07:00;18.40;99.90
29803;DHT22;16702;50.898;4.662;2023-07-02T03:09:31;18.50;99.90
29803;DHT22;16702;50.898;4.662;2023-07-02T03:12:01;18.40;99.90
29803;DHT22;16702;50.898;4.662;2023-07-02T03:14:32;18.40;99.90
29803;DHT22;16702;50.898;4.662;2023-07-02T03:17:03;18.40;99.90
29803;DHT22;16702;50.898;4.662;2023-07-02T03:19:34;18.40;99.90
29803;DHT22;16702;50.898;4.662;2023-07-02T03:22:07;18.40;99.90
29803;DHT22;16702;50.898;4.662;2023-07-02T03:24:38;18.30;99.90
29803;DHT22;16702;50.898;4.662;2023-07-02T03:27:09;18.30;99.90
29803;DHT22;16702;50.898;4.662;2023-07-02T03:29:39;18.30;99.90
29803;DHT22;16702;50.898;4.662;2023-07-02T03:32:10;18.20;99.90
29803;DHT22;16702;50.898;4.662;2023-07-02T03:34:40;18.20;99.90
29803;DHT22;16702;50.898;4.662;2023-07-02T03:37:14;18.30;99.90
29803;DHT22;16702;50.898;4.662;2023-07-02T03:39:45;18.20;99.90
29803;DHT22;16702;50.898;4.662;2023-07-02T03:42:16;18.10;99.90
29803;DHT22;16702;50.898;4.662;2023-07-02T03:44:46;18.20;99.90
29803;DHT22;16702;50.898;4.662;2023-07-02T03:47:17;18.20;99.90
29803;DHT22;16702;50.898;4.662;2023-07-02T03:49:48;18.10;99.90
29803;DHT22;16702;50.898;4.662;2023-07-02T03:52:21;18.20;99.90
29803;DHT22;16702;50.898;4.662;2023-07-02T03:54:51;18.10;99.90
29803;DHT22;16702;50.898;4.662;2023-07-02T03:57:22;18.10;99.90
29803;DHT22;16702;50.898;4.662;2023-07-02T03:59:54;18.10;99.90
29803;DHT22;16702;50.898;4.662;2023-07-02T04:02:24;18.00;99.90
29803;DHT22;16702;50.898;4.662;2023-07-02T04:04:55;18.00;99.90
29803;DHT22;16702;50.898;4.662;2023-07-02T04:07:28;18.00;99.90
29803;DHT22;16702;50.898;4.662;2023-07-02T04:09:58;18.00;99.90
29803;DHT22;16702;50.898;4.662;2023-07-02T04:12:29;18.00;99.90
29803;DHT22;16702;50.898;4.662;2023-07-02T04:15:00;18.10;99.90
29803;DHT22;16702;50.898;4.662;2023-07-02T04:17:30;18.10;99.90
29803;DHT22;16702;50.898;4.662;2023-07-02T04:20:02;18.00;99.90
29803;DHT22;16702;50.898;4.662;2023-07-02T04:22:37;18.00;99.90
29803;DHT22;16702;50.898;4.662;2023-07-02T04:25:08;18.10;99.90
29803;DHT22;16702;50.898;4.662;2023-07-02T04:28:02;18.00;99.90
29803;DHT22;16702;50.898;4.662;2023-07-02T04:30:33;18.00;99.90
29803;DHT22;16702;50.898;4.662;2023-07-02T04:33:03;18.00;99.90
29803;DHT22;16702;50.898;4.662;2023-07-02T04:35:34;18.00;99.90
29803;DHT22;16702;50.898;4.662;2023-07-02T04:38:08;18.00;99.90
29803;DHT22;16702;50.898;4.662;2023-07-02T04:40:39;18.00;99.90
29803;DHT22;16702;50.898;4.662;2023-07-02T04:43:12;18.00;99.90
29803;DHT22;16702;50.898;4.662;2023-07-02T04:45:45;18.00;99.90
29803;DHT22;16702;50.898;4.662;2023-07-02T04:48:16;18.00;99.90
29803;DHT22;16702;50.898;4.662;2023-07-02T04:50:47;18.00;99.90
29803;DHT22;16702;50.898;4.662;2023-07-02T04:53:20;18.00;99.90
29803;DHT22;16702;50.898;4.662;2023-07-02T04:55:51;18.10;99.90
29803;DHT22;16702;50.898;4.662;2023-07-02T04:58:21;18.00;99.90
29803;DHT22;16702;50.898;4.662;2023-07-02T05:00:52;18.10;99.90
29803;DHT22;16702;50.898;4.662;2023-07-02T05:03:22;18.10;99.90
29803;DHT22;16702;50.898;4.662;2023-07-02T05:05:54;18.10;99.90
29803;DHT22;16702;50.898;4.662;2023-07-02T05:08:27;18.00;99.90
29803;DHT22;16702;50.898;4.662;2023-07-02T05:10:57;18.10;99.90
29803;DHT22;16702;50.898;4.662;2023-07-02T05:13:28;18.10;99.90
29803;DHT22;16702;50.898;4.662;2023-07-02T05:15:58;18.10;99.90
29803;DHT22;16702;50.898;4.662;2023-07-02T05:18:29;18.10;99.90
29803;DHT22;16702;50.898;4.662;2023-07-02T05:20:59;18.00;99.90
29803;DHT22;16702;50.898;4.662;2023-07-02T05:23:33;18.10;99.90
29803;DHT22;16702;50.898;4.662;2023-07-02T05:26:03;18.10;99.90
29803;DHT22;16702;50.898;4.662;2023-07-02T05:28:34;18.10;99.90
29803;DHT22;16702;50.898;4.662;2023-07-02T05:31:04;18.00;99.90
29803;DHT22;16702;50.898;4.662;2023-07-02T05:33:35;18.10;99.90
29803;DHT22;16702;50.898;4.662;2023-07-02T05:36:05;18.20;99.90
29803;DHT22;16702;50.898;4.662;2023-07-02T05:38:38;18.10;99.90
29803;DHT22;16702;50.898;4.662;2023-07-02T05:41:09;18.10;99.90
29803;DHT22;16702;50.898;4.662;2023-07-02T05:43:39;18.10;99.90
29803;DHT22;16702;50.898;4.662;2023-07-02T05:46:10;18.10;99.90
29803;DHT22;16702;50.898;4.662;2023-07-02T05:48:42;18.20;99.90
29803;DHT22;16702;50.898;4.662;2023-07-02T05:51:12;18.20;99.90
29803;DHT22;16702;50.898;4.662;2023-07-02T05:53:45;18.20;99.90
29803;DHT22;16702;50.898;4.662;2023-07-02T05:56:16;18.30;99.90
29803;DHT22;16702;50.898;4.662;2023-07-02T05:58:49;18.20;99.90
29803;DHT22;16702;50.898;4.662;2023-07-02T06:01:19;18.20;99.90
29803;DHT22;16702;50.898;4.662;2023-07-02T06:03:50;18.30;99.90
29803;DHT22;16702;50.898;4.662;2023-07-02T06:06:21;18.30;99.90
29803;DHT22;16702;50.898;4.662;2023-07-02T06:08:55;18.30;99.90
29803;DHT22;16702;50.898;4.662;2023-07-02T06:11:26;18.40;99.90
29803;DHT22;16702;50.898;4.662;2023-07-02T06:13:56;18.30;99.90
29803;DHT22;16702;50.898;4.662;2023-07-02T06:16:27;18.20;99.90
29803;DHT22;16702;50.898;4.662;2023-07-02T06:18:57;18.20;99.90
29803;DHT22;16702;50.898;4.662;2023-07-02T06:21:28;18.30;99.90
29803;DHT22;16702;50.898;4.662;2023-07-02T06:24:02;18.40;99.90
29803;DHT22;16702;50.898;4.662;2023-07-02T06:26:33;18.30;99.90
29803;DHT22;16702;50.898;4.662;2023-07-02T06:29:03;18.40;99.90
29803;DHT22;16702;50.898;4.662;2023-07-02T06:31:34;18.40;99.90
29803;DHT22;16702;50.898;4.662;2023-07-02T06:34:04;18.40;99.90
29803;DHT22;16702;50.898;4.662;2023-07-02T06:36:35;18.40;99.90
29803;DHT22;16702;50.898;4.662;2023-07-02T06:39:09;18.40;99.90
29803;DHT22;16702;50.898;4.662;2023-07-02T06:41:39;18.40;99.90
29803;DHT22;16702;50.898;4.662;2023-07-02T06:44:10;18.50;99.90
29803;DHT22;16702;50.898;4.662;2023-07-02T06:46:40;18.60;99.90
29803;DHT22;16702;50.898;4.662;2023-07-02T06:49:11;18.60;99.90
29803;DHT22;16702;50.898;4.662;2023-07-02T06:51:41;18.60;99.90
29803;DHT22;16702;50.898;4.662;2023-07-02T06:54:15;18.60;99.90
29803;DHT22;16702;50.898;4.662;2023-07-02T06:56:45;18.70;99.90
29803;DHT22;16702;50.898;4.662;2023-07-02T06:59:19;18.60;99.90
29803;DHT22;16702;50.898;4.662;2023-07-02T07:01:50;18.70;99.90
29803;DHT22;16702;50.898;4.662;2023-07-02T07:04:21;18.70;99.90
29803;DHT22;16702;50.898;4.662;2023-07-02T07:06:52;18.70;99.90
29803;DHT22;16702;50.898;4.662;2023-07-02T07:09:25;18.70;99.90
29803;DHT22;16702;50.898;4.662;2023-07-02T07:11:56;18.80;99.90
29803;DHT22;16702;50.898;4.662;2023-07-02T07:14:26;18.90;99.90
29803;DHT22;16702;50.898;4.662;2023-07-02T07:16:57;18.90;99.90
29803;DHT22;16702;50.898;4.662;2023-07-02T07:19:27;18.90;99.90
29803;DHT22;16702;50.898;4.662;2023-07-02T07:21:58;19.00;99.90
29803;DHT22;16702;50.898;4.662;2023-07-02T07:24:31;19.00;99.90
29803;DHT22;16702;50.898;4.662;2023-07-02T07:27:02;19.10;99.90
29803;DHT22;16702;50.898;4.662;2023-07-02T07:29:32;19.10;99.90
29803;DHT22;16702;50.898;4.662;2023-07-02T07:32:05;19.20;99.90
29803;DHT22;16702;50.898;4.662;2023-07-02T07:34:36;19.20;99.90
29803;DHT22;16702;50.898;4.662;2023-07-02T07:37:06;19.20;99.90
29803;DHT22;16702;50.898;4.662;2023-07-02T07:39:39;19.30;99.90
29803;DHT22;16702;50.898;4.662;2023-07-02T07:42:10;19.20;99.90
29803;DHT22;16702;50.898;4.662;2023-07-02T07:44:41;19.20;99.90
29803;DHT22;16702;50.898;4.662;2023-07-02T07:47:11;19.20;99.90
29803;DHT22;16702;50.898;4.662;2023-07-02T07:49:42;19.20;99.90
29803;DHT22;16702;50.898;4.662;2023-07-02T07:52:13;19.40;99.90
29803;DHT22;16702;50.898;4.662;2023-07-02T07:54:47;19.40;99.90
29803;DHT22;16702;50.898;4.662;2023-07-02T07:57:17;19.40;99.90
29803;DHT22;16702;50.898;4.662;2023-07-02T07:59:48;19.40;99.90
29803;DHT22;16702;50.898;4.662;2023-07-02T08:02:19;19.50;99.90
29803;DHT22;16702;50.898;4.662;2023-07-02T08:04:50;19.40;99.90
29803;DHT22;16702;50.898;4.662;2023-07-02T08:07:21;19.50;99.90
29803;DHT22;16702;50.898;4.662;2023-07-02T08:09:54;19.50;99.90
29803;DHT22;16702;50.898;4.662;2023-07-02T08:12:25;19.60;99.90
29803;DHT22;16702;50.898;4.662;2023-07-02T08:14:57;19.60;99.90
29803;DHT22;16702;50.898;4.662;2023-07-02T08:17:27;19.70;99.90
29803;DHT22;16702;50.898;4.662;2023-07-02T08:19:58;19.60;99.90
29803;DHT22;16702;50.898;4.662;2023-07-02T08:22:30;19.70;99.90
29803;DHT22;16702;50.898;4.662;2023-07-02T08:25:03;19.70;99.90
29803;DHT22;16702;50.898;4.662;2023-07-02T08:27:35;19.70;99.90
29803;DHT22;16702;50.898;4.662;2023-07-02T08:30:07;19.60;99.90
29803;DHT22;16702;50.898;4.662;2023-07-02T08:32:37;19.70;99.90
29803;DHT22;16702;50.898;4.662;2023-07-02T08:35:08;19.90;99.90
29803;DHT22;16702;50.898;4.662;2023-07-02T08:37:39;19.90;99.90
29803;DHT22;16702;50.898;4.662;2023-07-02T08:40:19;20.00;99.90
29803;DHT22;16702;50.898;4.662;2023-07-02T08:42:49;20.10;99.90
29803;DHT22;16702;50.898;4.662;2023-07-02T08:45:20;20.00;99.90
29803;DHT22;16702;50.898;4.662;2023-07-02T08:47:53;20.20;99.90
29803;DHT22;16702;50.898;4.662;2023-07-02T08:50:25;20.20;99.90
29803;DHT22;16702;50.898;4.662;2023-07-02T08:52:56;20.20;99.90
29803;DHT22;16702;50.898;4.662;2023-07-02T08:55:29;20.40;99.90
29803;DHT22;16702;50.898;4.662;2023-07-02T08:58:00;20.40;99.90
29803;DHT22;16702;50.898;4.662;2023-07-02T09:00:30;20.40;99.90
29803;DHT22;16702;50.898;4.662;2023-07-02T09:03:14;20.50;99.90
29803;DHT22;16702;50.898;4.662;2023-07-02T09:05:50;20.60;99.90
29803;DHT22;16702;50.898;4.662;2023-07-02T09:08:24;20.70;99.90
29803;DHT22;16702;50.898;4.662;2023-07-02T09:11:05;20.70;99.90
29803;DHT22;16702;50.898;4.662;2023-07-02T09:13:43;20.70;99.90
29803;DHT22;16702;50.898;4.662;2023-07-02T09:16:24;20.90;99.90
29803;DHT22;16702;50.898;4.662;2023-07-02T09:18:57;20.90;99.90
29803;DHT22;16702;50.898;4.662;2023-07-02T09:21:37;20.70;99.90
29803;DHT22;16702;50.898;4.662;2023-07-02T09:24:15;20.80;99.90
29803;DHT22;16702;50.898;4.662;2023-07-02T09:26:50;20.80;99.90
29803;DHT22;16702;50.898;4.662;2023-07-02T09:29:22;20.70;99.90
29803;DHT22;16702;50.898;4.662;2023-07-02T09:31:54;20.90;99.90
29803;DHT22;16702;50.898;4.662;2023-07-02T09:34:37;20.70;99.90
29803;DHT22;16702;50.898;4.662;2023-07-02T09:37:09;20.60;99.90
29803;DHT22;16702;50.898;4.662;2023-07-02T09:39:40;20.60;99.90
29803;DHT22;16702;50.898;4.662;2023-07-02T09:42:14;20.80;99.90
29803;DHT22;16702;50.898;4.662;2023-07-02T09:44:47;20.60;99.90
29803;DHT22;16702;50.898;4.662;2023-07-02T09:47:19;20.60;99.90
29803;DHT22;16702;50.898;4.662;2023-07-02T09:49:54;20.60;99.90
29803;DHT22;16702;50.898;4.662;2023-07-02T09:52:26;20.80;99.90
29803;DHT22;16702;50.898;4.662;2023-07-02T09:54:57;20.80;99.90
29803;DHT22;16702;50.898;4.662;2023-07-02T09:57:31;20.90;99.90
29803;DHT22;16702;50.898;4.662;2023-07-02T10:00:05;20.80;99.90
29803;DHT22;16702;50.898;4.662;2023-07-02T10:02:38;20.80;99.90
29803;DHT22;16702;50.898;4.662;2023-07-02T10:05:08;20.70;99.90
29803;DHT22;16702;50.898;4.662;2023-07-02T10:07:39;20.70;99.90
29803;DHT22;16702;50.898;4.662;2023-07-02T10:10:10;20.80;99.90
29803;DHT22;16702;50.898;4.662;2023-07-02T10:12:48;21.00;99.90
29803;DHT22;16702;50.898;4.662;2023-07-02T10:15:24;20.90;99.90
29803;DHT22;16702;50.898;4.662;2023-07-02T10:17:56;20.90;99.90
29803;DHT22;16702;50.898;4.662;2023-07-02T10:20:35;20.80;99.90
29803;DHT22;16702;50.898;4.662;2023-07-02T10:23:07;20.80;99.90
29803;DHT22;16702;50.898;4.662;2023-07-02T10:25:39;20.70;99.90
29803;DHT22;16702;50.898;4.662;2023-07-02T10:28:20;20.60;99.90
29803;DHT22;16702;50.898;4.662;2023-07-02T10:30:54;20.70;99.90
29803;DHT22;16702;50.898;4.662;2023-07-02T10:33:24;20.70;99.90
29803;DHT22;16702;50.898;4.662;2023-07-02T10:35:55;20.70;99.90
29803;DHT22;16702;50.898;4.662;2023-07-02T10:38:26;20.80;99.90
29803;DHT22;16702;50.898;4.662;2023-07-02T10:40:57;20.90;99.90
29803;DHT22;16702;50.898;4.662;2023-07-02T10:43:31;21.10;99.90
29803;DHT22;16702;50.898;4.662;2023-07-02T10:46:02;21.40;99.90
29803;DHT22;16702;50.898;4.662;2023-07-02T10:48:32;21.30;99.90
29803;DHT22;16702;50.898;4.662;2023-07-02T10:51:11;21.30;99.90
29803;DHT22;16702;50.898;4.662;2023-07-02T10:53:42;21.10;99.90
29803;DHT22;16702;50.898;4.662;2023-07-02T10:56:18;21.30;99.90
29803;DHT22;16702;50.898;4.662;2023-07-02T10:58:52;21.10;99.90
29803;DHT22;16702;50.898;4.662;2023-07-02T11:01:24;21.10;99.90
29803;DHT22;16702;50.898;4.662;2023-07-02T11:03:59;21.10;99.90
29803;DHT22;16702;50.898;4.662;2023-07-02T11:06:31;21.00;99.90
29803;DHT22;16702;50.898;4.662;2023-07-02T11:09:02;21.10;99.90
29803;DHT22;16702;50.898;4.662;2023-07-02T11:11:32;21.10;99.90
29803;DHT22;16702;50.898;4.662;2023-07-02T11:14:05;21.10;99.90
29803;DHT22;16702;50.898;4.662;2023-07-02T11:16:36;21.10;99.90
29803;DHT22;16702;50.898;4.662;2023-07-02T11:19:08;21.20;99.90
29803;DHT22;16702;50.898;4.662;2023-07-02T11:21:49;21.40;99.90
29803;DHT22;16702;50.898;4.662;2023-07-02T11:24:31;21.50;99.90
29803;DHT22;16702;50.898;4.662;2023-07-02T11:27:02;21.70;99.90
29803;DHT22;16702;50.898;4.662;2023-07-02T11:29:35;21.70;99.90
29803;DHT22;16702;50.898;4.662;2023-07-02T11:32:06;21.80;99.90
29803;DHT22;16702;50.898;4.662;2023-07-02T11:34:38;21.70;99.90
29803;DHT22;16702;50.898;4.662;2023-07-02T11:37:09;21.70;99.90
29803;DHT22;16702;50.898;4.662;2023-07-02T11:39:39;21.70;99.90
29803;DHT22;16702;50.898;4.662;2023-07-02T11:42:13;21.70;99.90
29803;DHT22;16702;50.898;4.662;2023-07-02T11:44:46;21.60;99.90
29803;DHT22;16702;50.898;4.662;2023-07-02T11:47:16;21.70;99.90
29803;DHT22;16702;50.898;4.662;2023-07-02T11:49:47;21.70;99.90
29803;DHT22;16702;50.898;4.662;2023-07-02T11:52:17;21.70;99.90
29803;DHT22;16702;50.898;4.662;2023-07-02T11:54:48;21.60;99.90
29803;DHT22;16702;50.898;4.662;2023-07-02T11:57:20;21.60;99.90
29803;DHT22;16702;50.898;4.662;2023-07-02T11:59:54;21.90;99.90
29803;DHT22;16702;50.898;4.662;2023-07-02T12:02:24;22.10;99.90
29803;DHT22;16702;50.898;4.662;2023-07-02T12:04:55;22.00;99.90
29803;DHT22;16702;50.898;4.662;2023-07-02T12:07:30;21.90;99.90
29803;DHT22;16702;50.898;4.662;2023-07-02T12:10:00;22.20;99.90
29803;DHT22;16702;50.898;4.662;2023-07-02T12:12:31;22.20;99.90
29803;DHT22;16702;50.898;4.662;2023-07-02T12:15:05;22.30;99.90
29803;DHT22;16702;50.898;4.662;2023-07-02T12:17:36;22.50;99.90
29803;DHT22;16702;50.898;4.662;2023-07-02T12:20:07;22.70;99.90
29803;DHT22;16702;50.898;4.662;2023-07-02T12:22:38;22.50;99.90
29803;DHT22;16702;50.898;4.662;2023-07-02T12:25:09;22.50;99.90
29803;DHT22;16702;50.898;4.662;2023-07-02T12:27:39;22.40;99.90
29803;DHT22;16702;50.898;4.662;2023-07-02T12:30:13;22.30;99.90
29803;DHT22;16702;50.898;4.662;2023-07-02T12:32:44;22.60;99.90
29803;DHT22;16702;50.898;4.662;2023-07-02T12:35:15;22.60;99.90
29803;DHT22;16702;50.898;4.662;2023-07-02T12:37:46;22.50;99.90
29803;DHT22;16702;50.898;4.662;2023-07-02T12:40:18;22.50;99.90
29803;DHT22;16702;50.898;4.662;2023-07-02T12:42:49;22.70;99.90
29803;DHT22;16702;50.898;4.662;2023-07-02T12:45:22;22.50;99.90
29803;DHT22;16702;50.898;4.662;2023-07-02T12:47:53;23.00;99.90
29803;DHT22;16702;50.898;4.662;2023-07-02T12:50:23;22.80;99.90
29803;DHT22;16702;50.898;4.662;2023-07-02T12:52:54;22.70;99.90
29803;DHT22;16702;50.898;4.662;2023-07-02T12:55:24;22.60;99.90
29803;DHT22;16702;50.898;4.662;2023-07-02T12:57:55;22.70;99.90
29803;DHT22;16702;50.898;4.662;2023-07-02T13:00:28;23.00;99.90
29803;DHT22;16702;50.898;4.662;2023-07-02T13:02:59;23.10;99.90
29803;DHT22;16702;50.898;4.662;2023-07-02T13:05:32;23.10;99.90
29803;DHT22;16702;50.898;4.662;2023-07-02T13:08:03;23.00;99.90
29803;DHT22;16702;50.898;4.662;2023-07-02T13:10:34;22.80;99.90
29803;DHT22;16702;50.898;4.662;2023-07-02T13:13:08;22.80;99.90
29803;DHT22;16702;50.898;4.662;2023-07-02T13:15:52;22.80;99.90
29803;DHT22;16702;50.898;4.662;2023-07-02T13:18:23;23.00;99.90
29803;DHT22;16702;50.898;4.662;2023-07-02T13:20:53;23.00;99.90
29803;DHT22;16702;50.898;4.662;2023-07-02T13:23:24;23.30;99.90
29803;DHT22;16702;50.898;4.662;2023-07-02T13:25:54;23.70;99.90
29803;DHT22;16702;50.898;4.662;2023-07-02T13:28:25;23.70;99.90
29803;DHT22;16702;50.898;4.662;2023-07-02T13:30:58;23.70;99.90
29803;DHT22;16702;50.898;4.662;2023-07-02T13:33:31;23.90;99.90
29803;DHT22;16702;50.898;4.662;2023-07-02T13:36:02;23.90;99.90
29803;DHT22;16702;50.898;4.662;2023-07-02T13:38:33;24.10;99.90
29803;DHT22;16702;50.898;4.662;2023-07-02T13:41:04;24.20;99.90
29803;DHT22;16702;50.898;4.662;2023-07-02T13:43:35;24.00;99.90
29803;DHT22;16702;50.898;4.662;2023-07-02T13:46:09;23.80;99.90
29803;DHT22;16702;50.898;4.662;2023-07-02T13:48:39;23.70;99.90
29803;DHT22;16702;50.898;4.662;2023-07-02T13:51:10;23.70;99.90
29803;DHT22;16702;50.898;4.662;2023-07-02T13:53:40;23.80;99.90
29803;DHT22;16702;50.898;4.662;2023-07-02T13:56:11;24.00;99.90
29803;DHT22;16702;50.898;4.662;2023-07-02T13:59:02;24.00;99.90
29803;DHT22;16702;50.898;4.662;2023-07-02T14:01:33;23.80;99.90
29803;DHT22;16702;50.898;4.662;2023-07-02T14:04:04;23.70;99.90
29803;DHT22;16702;50.898;4.662;2023-07-02T14:06:35;23.80;99.90
29803;DHT22;16702;50.898;4.662;2023-07-02T14:09:06;23.90;99.90
29803;DHT22;16702;50.898;4.662;2023-07-02T14:11:40;23.90;99.90
29803;DHT22;16702;50.898;4.662;2023-07-02T14:14:16;24.20;99.90
29803;DHT22;16702;50.898;4.662;2023-07-02T14:16:47;24.20;99.90
29803;DHT22;16702;50.898;4.662;2023-07-02T14:19:17;24.00;99.90
29803;DHT22;16702;50.898;4.662;2023-07-02T14:21:48;24.20;99.90
29803;DHT22;16702;50.898;4.662;2023-07-02T14:24:18;24.10;99.90
29803;DHT22;16702;50.898;4.662;2023-07-02T14:26:49;24.20;99.90
29803;DHT22;16702;50.898;4.662;2023-07-02T14:29:22;24.60;99.90
29803;DHT22;16702;50.898;4.662;2023-07-02T14:31:54;24.60;99.90
29803;DHT22;16702;50.898;4.662;2023-07-02T14:34:25;24.60;99.90
29803;DHT22;16702;50.898;4.662;2023-07-02T14:36:56;24.70;99.90
29803;DHT22;16702;50.898;4.662;2023-07-02T14:39:26;25.10;99.90
29803;DHT22;16702;50.898;4.662;2023-07-02T14:41:57;25.10;99.90
29803;DHT22;16702;50.898;4.662;2023-07-02T14:44:30;25.00;99.90
29803;DHT22;16702;50.898;4.662;2023-07-02T14:47:03;24.90;99.90
29803;DHT22;16702;50.898;4.662;2023-07-02T14:49:34;24.90;99.60
29803;DHT22;16702;50.898;4.662;2023-07-02T14:52:06;24.70;99.90
29803;DHT22;16702;50.898;4.662;2023-07-02T14:54:36;24.60;99.90
29803;DHT22;16702;50.898;4.662;2023-07-02T14:57:07;24.60;99.90
29803;DHT22;16702;50.898;4.662;2023-07-02T14:59:40;24.50;99.90
29803;DHT22;16702;50.898;4.662;2023-07-02T15:02:11;24.50;99.90
29803;DHT22;16702;50.898;4.662;2023-07-02T15:04:42;24.30;99.90
29803;DHT22;16702;50.898;4.662;2023-07-02T15:07:13;24.40;99.90
29803;DHT22;16702;50.898;4.662;2023-07-02T15:09:44;24.30;99.90
29803;DHT22;16702;50.898;4.662;2023-07-02T15:12:14;24.20;99.90
29803;DHT22;16702;50.898;4.662;2023-07-02T15:14:48;24.30;99.90
29803;DHT22;16702;50.898;4.662;2023-07-02T15:17:18;24.30;99.90
29803;DHT22;16702;50.898;4.662;2023-07-02T15:19:49;24.20;99.90
29803;DHT22;16702;50.898;4.662;2023-07-02T15:22:19;24.60;99.90
29803;DHT22;16702;50.898;4.662;2023-07-02T15:24:50;24.60;99.90
29803;DHT22;16702;50.898;4.662;2023-07-02T15:27:20;24.40;99.90
29803;DHT22;16702;50.898;4.662;2023-07-02T15:29:54;24.40;99.90
29803;DHT22;16702;50.898;4.662;2023-07-02T15:32:24;24.50;99.90
29803;DHT22;16702;50.898;4.662;2023-07-02T15:34:55;24.50;99.90
29803;DHT22;16702;50.898;4.662;2023-07-02T15:37:26;24.40;99.90
29803;DHT22;16702;50.898;4.662;2023-07-02T15:39:56;24.40;99.90
29803;DHT22;16702;50.898;4.662;2023-07-02T15:42:27;24.60;99.80
29803;DHT22;16702;50.898;4.662;2023-07-02T15:45:02;24.50;99.60
29803;DHT22;16702;50.898;4.662;2023-07-02T15:47:34;24.70;99.70
29803;DHT22;16702;50.898;4.662;2023-07-02T15:50:05;24.70;99.90
29803;DHT22;16702;50.898;4.662;2023-07-02T15:52:36;24.60;98.90
29803;DHT22;16702;50.898;4.662;2023-07-02T15:55:07;24.50;98.30
29803;DHT22;16702;50.898;4.662;2023-07-02T15:57:37;24.50;99.10